aviador You're here:

KELN Decoded Metar

ELLENSBURG in WA, USA
Report Time2017-12-15 13:53:00
UTC Time2017-12-15 14:08:46
Flight Rules mvfr MVFR
WindCalm
Visibility9999 m
Phenomena:N/A
Clouds:Overcast 012 Hf
Expected CloudBase > 800 ft AGL from Temp-Dew spread
Ceiling1,200 ft
Temp-1°C (ISA -13)
Dew Point-3°C (86% RH)
AAT-3.4°C
QNH1022 hPa
Density Alt-69 ft
Elevation1,703 ft
Report Wrong Elevation
Raw Report
METAR KELN 151353Z AUTO 00000KT 10SM OVC012 M01/M03 A3018 RMK AO2 SLP238
T10111028=

Extra information for KELN:More info

Metar Taf Metar & Taf Last 4 Metars F.Rules Stats Wind Profile Meteogram Temp Stats Airport Information Weather charts Add Link Nearby VenuesMetar ALERT Operation Metar Decoded Social comments

AIRNAV info for KELN